Time;durP1;ratioP1;P1;durP2;ratioP2;P2;SDS_P1;SDS_P2;PMS_P1;PMS_P2;Temp;Humidity;BMP_temperature;BMP_pressure;BME280_temperature;BME280_humidity;BME280_pressure;Samples;Min_cycle;Max_cycle;Signal;HPM_P1;HPM_P2
2023/10/23 00:02:17;;;;;;;3.67;1.70;;;;;;;19.81;53.21;101180.66;5002376;28;20569;-75
2023/10/23 00:04:42;;;;;;;3.47;1.43;;;;;;;19.80;52.77;101181.59;5003850;28;20034;-74
2023/10/23 00:07:07;;;;;;;3.08;1.48;;;;;;;19.80;52.65;101178.13;5003050;28;20834;-75
2023/10/23 00:09:33;;;;;;;3.42;1.30;;;;;;;19.79;52.89;101179.09;5002104;28;20443;-75
2023/10/23 00:11:58;;;;;;;4.43;1.75;;;;;;;19.78;52.79;101183.53;5003042;28;20042;-75
2023/10/23 00:14:23;;;;;;;3.33;1.48;;;;;;;19.74;52.63;101176.78;5003123;28;20667;-75
2023/10/23 00:16:49;;;;;;;4.97;1.30;;;;;;;19.77;52.91;101184.50;5003088;28;20080;-75
2023/10/23 00:19:14;;;;;;;3.45;1.50;;;;;;;19.77;52.74;101189.78;5002896;28;20447;-75
2023/10/23 00:21:39;;;;;;;2.95;1.38;;;;;;;19.75;52.82;101181.94;5003251;28;20088;-75
2023/10/23 00:24:05;;;;;;;4.60;1.80;;;;;;;19.74;52.67;101190.88;5003794;28;20503;-75
2023/10/23 00:26:30;;;;;;;3.45;1.40;;;;;;;19.75;52.94;101184.59;5003195;28;20358;-74
2023/10/23 00:28:55;;;;;;;3.40;1.33;;;;;;;19.74;52.50;101182.06;5002531;28;20037;-73
2023/10/23 00:31:20;;;;;;;4.07;1.67;;;;;;;19.73;52.53;101185.72;5002755;28;20355;-75
2023/10/23 00:33:46;;;;;;;2.97;1.40;;;;;;;19.72;52.69;101184.84;5002377;28;20044;-74
2023/10/23 00:36:11;;;;;;;2.72;1.42;;;;;;;19.71;52.60;101188.47;5002003;28;20353;-75
2023/10/23 00:38:36;;;;;;;2.35;1.17;;;;;;;19.71;52.41;101193.78;5002426;28;20044;-74
2023/10/23 00:41:01;;;;;;;3.40;1.48;;;;;;;19.71;52.49;101192.91;5002924;28;20096;-75
2023/10/23 00:43:27;;;;;;;3.28;1.50;;;;;;;19.70;52.60;101189.44;5001866;28;20970;-74
2023/10/23 00:45:58;;;;;;;3.33;1.45;;;;;;;19.69;52.42;101189.56;5002378;28;20040;-74
2023/10/23 00:48:24;;;;;;;3.40;1.60;;;;;;;19.68;52.39;101194.03;5000625;28;20152;-74
2023/10/23 00:50:51;;;;;;;2.65;1.30;;;;;;;19.67;52.37;101194.16;5002004;28;20037;-74
2023/10/23 00:53:19;;;;;;;3.03;1.40;;;;;;;19.67;52.35;101196.78;5002480;28;20045;-75
2023/10/23 00:55:46;;;;;;;2.67;1.30;;;;;;;19.66;52.31;101195.09;4984506;28;20033;-75
2023/10/23 00:58:13;;;;;;;3.28;1.38;;;;;;;19.65;52.25;101198.72;5001231;28;20037;-74
2023/10/23 01:00:39;;;;;;;3.00;1.30;;;;;;;19.65;52.19;101204.84;5002394;28;20057;-73
2023/10/23 01:03:06;;;;;;;3.78;1.50;;;;;;;19.64;52.39;101205.81;5002045;28;20107;-74
2023/10/23 01:05:31;;;;;;;3.22;1.25;;;;;;;19.64;52.43;101204.97;5000618;28;20086;-74
2023/10/23 01:07:56;;;;;;;3.10;1.50;;;;;;;19.63;52.21;101205.94;5002031;28;20056;-74
2023/10/23 01:10:22;;;;;;;3.42;1.73;;;;;;;19.61;52.17;101211.34;5001384;28;20029;-74
2023/10/23 01:12:47;;;;;;;3.10;1.35;;;;;;;19.61;52.08;101215.78;5001217;28;20075;-74
2023/10/23 01:15:12;;;;;;;3.38;1.63;;;;;;;19.61;52.14;101216.63;5001750;28;20079;-74
2023/10/23 01:17:38;;;;;;;3.35;1.48;;;;;;;19.57;52.16;101216.03;5001983;28;20486;-74
2023/10/23 01:20:08;;;;;;;2.83;1.33;;;;;;;19.60;52.07;101209.69;5001697;28;20493;-74
2023/10/23 01:22:34;;;;;;;3.00;1.40;;;;;;;19.58;52.06;101215.09;4984207;28;20040;-75
2023/10/23 01:25:00;;;;;;;3.95;1.55;;;;;;;19.57;51.98;101213.41;5001350;28;20041;-74
2023/10/23 01:27:26;;;;;;;3.83;1.40;;;;;;;19.57;51.99;101220.50;5000336;28;20081;-75
2023/10/23 01:29:51;;;;;;;2.88;1.33;;;;;;;19.57;51.93;101215.22;4999420;28;20847;-74
2023/10/23 01:32:16;;;;;;;4.40;1.53;;;;;;;19.56;51.69;101217.00;5000945;28;20044;-75
2023/10/23 01:34:41;;;;;;;3.10;1.30;;;;;;;19.56;52.23;101210.88;5001327;28;20274;-73
2023/10/23 01:37:07;;;;;;;3.85;1.30;;;;;;;19.54;52.00;101211.00;5001459;28;20298;-74
2023/10/23 01:39:32;;;;;;;4.00;1.37;;;;;;;19.55;51.68;101215.34;5002643;28;20038;-74
2023/10/23 01:41:57;;;;;;;3.45;1.38;;;;;;;19.54;51.84;101212.81;5001141;28;20263;-75
2023/10/23 01:44:22;;;;;;;2.33;1.20;;;;;;;19.53;51.79;101209.31;5002110;28;20065;-74
2023/10/23 01:46:48;;;;;;;4.15;1.40;;;;;;;19.53;51.83;101209.31;5002134;28;20034;-74
2023/10/23 01:49:13;;;;;;;3.50;1.40;;;;;;;19.53;51.74;101208.47;5000985;28;20440;-74
2023/10/23 01:51:38;;;;;;;3.87;1.60;;;;;;;19.52;51.74;101210.28;5000425;28;20279;-75
2023/10/23 01:54:04;;;;;;;3.83;1.50;;;;;;;19.52;51.67;101204.19;5000692;28;20306;-74
2023/10/23 01:56:29;;;;;;;3.25;1.20;;;;;;;19.50;51.71;101206.09;4999872;28;20041;-75
2023/10/23 01:58:54;;;;;;;3.33;1.30;;;;;;;19.50;51.42;101209.59;5000354;28;20038;-74
2023/10/23 02:01:22;;;;;;;4.22;1.48;;;;;;;19.49;51.57;101205.25;5001513;28;20270;-75
2023/10/23 02:03:47;;;;;;;1.90;1.00;;;;;;;19.48;51.71;101200.94;4983024;28;20205;-75
2023/10/23 02:06:12;;;;;;;3.50;1.48;;;;;;;19.49;51.70;101209.72;5001762;28;20776;-74
2023/10/23 02:08:38;;;;;;;3.22;1.45;;;;;;;19.49;51.49;101210.53;5001449;28;20034;-74
2023/10/23 02:11:03;;;;;;;2.78;1.40;;;;;;;19.46;51.53;101213.44;5002133;28;20040;-74
2023/10/23 02:13:28;;;;;;;2.63;1.30;;;;;;;19.47;51.71;101215.13;5001610;28;20048;-74
2023/10/23 02:15:53;;;;;;;3.80;1.47;;;;;;;19.46;51.59;101208.16;4999520;28;20029;-75
2023/10/23 02:18:19;;;;;;;4.00;1.40;;;;;;;19.46;51.60;101207.31;5001776;28;20282;-75
2023/10/23 02:20:44;;;;;;;3.05;1.40;;;;;;;19.46;51.22;101215.25;5002778;28;20103;-74
2023/10/23 02:23:09;;;;;;;2.72;1.15;;;;;;;19.44;51.41;101217.16;5000848;28;20049;-74
2023/10/23 02:25:35;;;;;;;3.50;1.30;;;;;;;19.44;51.32;101236.53;5002581;28;20482;-75
2023/10/23 02:28:00;;;;;;;3.35;1.40;;;;;;;19.45;51.35;101237.34;5003031;28;20054;-74
2023/10/23 02:30:25;;;;;;;2.97;1.27;;;;;;;19.44;51.39;101233.00;5001769;28;20030;-75
2023/10/23 02:32:50;;;;;;;3.35;1.80;;;;;;;19.44;51.28;101230.38;5003529;28;20489;-74
2023/10/23 02:35:16;;;;;;;2.83;1.25;;;;;;;19.42;51.27;101235.78;5003082;28;20137;-74
2023/10/23 02:37:41;;;;;;;3.40;1.40;;;;;;;19.43;51.02;101234.81;5002170;28;20041;-74
2023/10/23 02:40:07;;;;;;;3.60;1.60;;;;;;;19.42;51.21;101235.78;5001720;28;20041;-75
2023/10/23 02:42:32;;;;;;;4.68;1.30;;;;;;;19.43;51.04;101241.94;4998782;28;20267;-75
2023/10/23 02:44:59;;;;;;;3.92;1.40;;;;;;;19.42;51.16;101234.94;5001876;28;20041;-74
2023/10/23 02:47:24;;;;;;;4.03;1.40;;;;;;;19.42;51.17;101219.91;4984201;28;20510;-75
2023/10/23 02:49:52;;;;;;;3.27;1.20;;;;;;;19.39;51.25;101231.59;5000691;28;20040;-74
2023/10/23 02:52:18;;;;;;;3.60;1.33;;;;;;;19.41;51.29;101236.75;4999294;28;20278;-74
2023/10/23 02:54:43;;;;;;;4.70;1.50;;;;;;;19.39;51.09;101231.59;5000775;28;20038;-75
2023/10/23 02:57:08;;;;;;;4.78;1.30;;;;;;;19.40;50.84;101233.25;5002428;28;20564;-74
2023/10/23 02:59:34;;;;;;;3.67;1.40;;;;;;;19.39;51.03;101228.09;5006584;28;20053;-74
2023/10/23 03:01:59;;;;;;;4.00;1.23;;;;;;;19.38;51.04;101235.19;5022339;28;20068;-74
2023/10/23 03:04:24;;;;;;;3.90;1.40;;;;;;;19.38;50.84;101229.09;5022495;28;20041;-74
2023/10/23 03:06:50;;;;;;;2.45;1.10;;;;;;;19.37;50.88;101228.22;5015158;28;20046;-74
2023/10/23 03:09:15;;;;;;;3.10;1.10;;;;;;;19.36;50.75;101226.56;5005136;28;20057;-74
2023/10/23 03:11:40;;;;;;;2.97;1.20;;;;;;;19.36;50.76;101231.84;5010591;28;20270;-74
2023/10/23 03:14:08;;;;;;;5.60;1.45;;;;;;;19.35;50.68;101232.78;5006405;28;20116;-75
2023/10/23 03:16:34;;;;;;;2.90;1.25;;;;;;;19.36;50.71;101237.13;5005288;28;20445;-75
2023/10/23 03:18:59;;;;;;;3.50;1.30;;;;;;;19.36;50.93;101237.13;5015461;28;20033;-74
2023/10/23 03:21:24;;;;;;;3.65;1.42;;;;;;;19.34;50.63;101232.91;5017305;28;20556;-73
2023/10/23 03:23:50;;;;;;;3.25;1.33;;;;;;;19.35;50.76;101234.63;5017980;28;20029;-74
2023/10/23 03:26:15;;;;;;;3.75;1.50;;;;;;;19.34;50.54;101232.91;5013060;28;20041;-74
2023/10/23 03:28:41;;;;;;;4.00;1.38;;;;;;;19.32;50.53;101233.03;5001561;28;20057;-74
2023/10/23 03:31:06;;;;;;;3.95;1.33;;;;;;;19.31;50.42;101231.38;5001760;28;20892;-74
2023/10/23 03:33:32;;;;;;;2.97;1.30;;;;;;;19.32;50.15;101234.84;5001405;28;20034;-74
2023/10/23 03:35:57;;;;;;;3.47;1.30;;;;;;;19.32;50.36;101227.75;5007639;28;20057;-74
2023/10/23 03:38:23;;;;;;;2.80;1.40;;;;;;;19.30;50.48;101234.97;4999635;28;20045;-74
2023/10/23 03:40:59;;;;;;;3.20;1.30;;;;;;;19.29;50.34;101237.75;5000750;28;20037;-74
2023/10/23 03:43:25;;;;;;;2.95;1.35;;;;;;;19.29;50.34;101238.56;5001383;28;20038;-74
2023/10/23 03:45:50;;;;;;;3.00;1.30;;;;;;;19.29;50.33;101238.56;5000827;28;20046;-74
2023/10/23 03:48:15;;;;;;;4.95;1.50;;;;;;;19.29;50.28;101233.28;5001792;28;20030;-75
2023/10/23 03:50:41;;;;;;;6.50;1.40;;;;;;;19.26;50.40;101233.53;4999612;28;20069;-74
2023/10/23 03:53:06;;;;;;;3.63;1.27;;;;;;;19.27;50.27;101231.75;5001214;28;20026;-74
2023/10/23 03:55:36;;;;;;;3.08;1.23;;;;;;;19.26;50.28;101240.63;5003952;28;20404;-74
2023/10/23 03:58:02;;;;;;;2.85;1.20;;;;;;;19.26;50.04;101233.53;5001651;28;20052;-74
2023/10/23 04:00:27;;;;;;;3.40;1.23;;;;;;;19.25;50.11;101233.66;5002864;28;20037;-74
2023/10/23 04:02:52;;;;;;;3.38;1.20;;;;;;;19.26;50.17;101243.28;5004338;28;21165;-73
2023/10/23 04:05:17;;;;;;;3.05;1.20;;;;;;;19.27;49.95;101242.31;5004678;28;20509;-74
2023/10/23 04:07:43;;;;;;;3.55;1.73;;;;;;;19.24;49.95;101239.91;5003719;28;20045;-74
2023/10/23 04:10:08;;;;;;;3.90;1.50;;;;;;;19.25;50.08;101241.56;5007249;28;20486;-74
2023/10/23 04:12:34;;;;;;;5.15;1.40;;;;;;;19.25;49.97;101246.88;5003349;28;20030;-74
2023/10/23 04:14:59;;;;;;;3.20;1.13;;;;;;;19.24;49.89;101246.03;5003715;28;20034;-74
2023/10/23 04:17:25;;;;;;;2.93;1.10;;;;;;;19.24;49.94;101242.56;5003883;28;20061;-74
2023/10/23 04:19:50;;;;;;;3.47;1.27;;;;;;;19.24;49.97;101237.28;5002740;28;20279;-74
2023/10/23 04:22:15;;;;;;;4.35;1.55;;;;;;;19.23;49.90;101241.69;5004346;28;20113;-74
2023/10/23 04:24:41;;;;;;;3.70;1.43;;;;;;;19.23;49.85;101248.81;5003993;28;20033;-74
2023/10/23 04:27:06;;;;;;;3.83;1.27;;;;;;;19.23;49.73;101251.44;5002674;28;20402;-74
2023/10/23 04:29:31;;;;;;;2.67;1.07;;;;;;;19.23;49.71;101256.72;5003377;28;20371;-74
2023/10/23 04:31:57;;;;;;;2.85;1.38;;;;;;;19.20;49.56;101250.72;5005031;28;20274;-74
2023/10/23 04:34:22;;;;;;;3.13;1.30;;;;;;;19.21;49.89;101254.19;5005674;28;20129;-74
2023/10/23 04:36:47;;;;;;;3.75;1.42;;;;;;;19.20;49.72;101255.16;5005716;28;20278;-74
2023/10/23 04:39:12;;;;;;;2.63;1.20;;;;;;;19.17;49.72;101250.97;5005691;28;20437;-74
2023/10/23 04:41:38;;;;;;;3.70;1.40;;;;;;;19.19;49.86;101259.59;5005547;28;20144;-74
2023/10/23 04:44:03;;;;;;;2.95;1.20;;;;;;;19.19;49.50;101259.59;5010699;28;20041;-74
2023/10/23 04:46:29;;;;;;;3.28;1.23;;;;;;;19.18;49.66;101251.81;5006363;28;20038;-74
2023/10/23 04:48:54;;;;;;;3.03;1.20;;;;;;;19.18;49.33;101251.81;5002895;28;20042;-74
2023/10/23 04:51:19;;;;;;;4.13;1.50;;;;;;;19.16;49.73;101244.00;5002852;28;20029;-74
2023/10/23 04:53:45;;;;;;;4.10;1.38;;;;;;;19.17;49.38;101245.69;5001910;28;20048;-74
2023/10/23 04:56:10;;;;;;;3.78;1.40;;;;;;;19.16;49.44;101229.97;5002122;28;20076;-74
2023/10/23 04:58:35;;;;;;;3.03;1.30;;;;;;;19.17;49.64;101248.34;5002023;28;20473;-74
2023/10/23 05:01:00;;;;;;;4.55;1.38;;;;;;;19.16;49.40;101249.28;5001701;28;20037;-74
2023/10/23 05:03:26;;;;;;;3.28;1.30;;;;;;;19.14;49.28;101243.28;5002211;28;20061;-74
2023/10/23 05:05:51;;;;;;;4.18;1.60;;;;;;;19.15;49.45;101241.47;5000596;28;20425;-74
2023/10/23 05:08:16;;;;;;;5.28;1.60;;;;;;;19.13;49.61;101246.88;5002431;28;20037;-74
2023/10/23 05:10:42;;;;;;;3.83;1.20;;;;;;;19.16;49.57;101248.44;5000876;28;20305;-74
2023/10/23 05:13:07;;;;;;;2.53;1.20;;;;;;;19.14;49.39;101247.75;5002145;28;20561;-74
2023/10/23 05:15:33;;;;;;;3.90;1.30;;;;;;;19.13;49.33;101251.34;5002113;28;20036;-74
2023/10/23 05:17:58;;;;;;;2.10;1.15;;;;;;;19.13;49.50;101246.88;4999760;28;20026;-74
2023/10/23 05:20:24;;;;;;;3.97;1.38;;;;;;;19.12;49.22;101239.94;5001992;28;20121;-75
2023/10/23 05:22:49;;;;;;;4.47;1.25;;;;;;;19.11;49.25;101243.53;5002878;28;20490;-74
2023/10/23 05:25:15;;;;;;;3.00;1.10;;;;;;;19.11;49.07;101245.34;5001069;28;20026;-74
2023/10/23 05:27:40;;;;;;;4.00;1.33;;;;;;;19.11;49.19;101243.53;5001233;28;20425;-75
2023/10/23 05:30:06;;;;;;;3.08;1.30;;;;;;;19.10;49.29;101241.84;5001649;28;20036;-73
2023/10/23 05:32:35;;;;;;;4.10;1.40;;;;;;;19.09;49.27;101236.66;5001944;28;20061;-75
2023/10/23 05:35:03;;;;;;;2.67;1.10;;;;;;;19.10;49.26;101238.38;5002434;28;20063;-73
2023/10/23 05:37:29;;;;;;;3.85;1.45;;;;;;;19.11;49.42;101243.53;5003382;28;20036;-74
2023/10/23 05:39:55;;;;;;;3.55;1.15;;;;;;;19.13;49.46;101238.13;5001559;28;20285;-74
2023/10/23 05:42:20;;;;;;;2.30;1.13;;;;;;;19.12;49.64;101239.94;5002366;28;20041;-75
2023/10/23 05:44:45;;;;;;;3.40;1.27;;;;;;;19.15;49.69;101239.69;5001881;28;20267;-74
2023/10/23 05:47:11;;;;;;;3.33;1.27;;;;;;;19.17;49.83;101243.03;5001092;28;20033;-75
2023/10/23 05:49:36;;;;;;;2.63;1.15;;;;;;;19.17;49.91;101245.69;5000676;28;20279;-74
2023/10/23 05:52:01;;;;;;;3.55;1.25;;;;;;;19.19;49.97;101243.75;5001707;28;20192;-74
2023/10/23 05:54:26;;;;;;;3.50;1.20;;;;;;;19.21;50.04;101248.91;5001054;28;20079;-75
2023/10/23 05:56:52;;;;;;;3.15;1.23;;;;;;;19.17;50.02;101245.69;5001163;28;20034;-75
2023/10/23 05:59:17;;;;;;;2.83;1.40;;;;;;;19.20;50.31;101248.09;5000901;28;20033;-75
2023/10/23 06:01:42;;;;;;;4.07;1.30;;;;;;;19.21;50.44;101246.28;5001056;28;20290;-74
2023/10/23 06:04:07;;;;;;;3.38;1.27;;;;;;;19.21;50.34;101239.19;4999300;28;20040;-74
2023/10/23 06:06:33;;;;;;;3.00;1.10;;;;;;;19.21;50.39;101233.06;5001271;28;20536;-74
2023/10/23 06:08:59;;;;;;;2.83;1.20;;;;;;;19.23;50.42;101233.78;4998802;28;20037;-74
2023/10/23 06:11:24;;;;;;;2.72;1.27;;;;;;;19.23;50.54;101236.41;5001364;28;20038;-74
2023/10/23 06:13:50;;;;;;;2.72;1.10;;;;;;;19.25;50.51;101244.22;4999946;28;20100;-73
2023/10/23 06:16:15;;;;;;;4.07;1.10;;;;;;;19.26;50.42;101240.63;5001390;28;21307;-75
2023/10/23 06:18:40;;;;;;;3.65;1.20;;;;;;;19.25;50.73;101238.94;5000152;28;20029;-74
2023/10/23 06:21:06;;;;;;;2.88;1.10;;;;;;;19.27;50.55;101240.50;5000006;28;20620;-74
2023/10/23 06:23:39;;;;;;;2.45;1.15;;;;;;;19.25;51.00;101233.66;5000848;28;20060;-73
2023/10/23 06:26:05;;;;;;;4.07;1.33;;;;;;;19.29;50.34;101238.56;5000430;28;20429;-74
2023/10/23 06:28:32;;;;;;;3.38;1.65;;;;;;;19.34;49.96;101243.50;4982636;28;20493;-75
2023/10/23 06:31:06;;;;;;;5.85;1.42;;;;;;;19.35;50.08;101245.19;5001365;28;20038;-76
2023/10/23 06:33:32;;;;;;;4.75;1.45;;;;;;;19.37;49.89;101244.06;5000957;28;20060;-75
2023/10/23 06:35:58;;;;;;;4.50;1.27;;;;;;;19.40;49.71;101246.47;5000442;28;20072;-76
2023/10/23 06:38:23;;;;;;;3.88;1.33;;;;;;;19.40;49.69;101243.84;5001218;28;20069;-75
2023/10/23 06:40:49;;;;;;;5.30;1.38;;;;;;;19.40;50.01;101245.66;5000197;28;20907;-74
2023/10/23 06:43:14;;;;;;;2.50;1.37;;;;;;;19.39;50.14;101244.81;4996799;28;20038;-73
2023/10/23 06:45:39;;;;;;;4.45;1.45;;;;;;;19.39;49.97;101247.47;4999677;28;20431;-71
2023/10/23 06:48:05;;;;;;;4.80;1.20;;;;;;;19.30;50.38;101245.56;4999762;28;20033;-69
2023/10/23 06:50:30;;;;;;;4.72;1.70;;;;;;;19.34;50.31;101248.78;4998897;28;20038;-69
2023/10/23 06:52:56;;;;;;;5.77;1.60;;;;;;;19.28;50.73;101243.97;5000378;28;20339;-71
2023/10/23 06:55:24;;;;;;;3.50;1.35;;;;;;;19.26;51.04;101236.16;5000232;28;20954;-72
2023/10/23 06:57:49;;;;;;;4.20;1.50;;;;;;;19.27;50.48;101235.22;4999155;28;20061;-72
2023/10/23 07:00:15;;;;;;;4.03;1.30;;;;;;;19.27;50.55;101240.50;4999357;28;20076;-71
2023/10/23 07:02:40;;;;;;;4.10;1.48;;;;;;;19.25;51.22;101236.28;4999170;28;20057;-71
2023/10/23 07:05:06;;;;;;;3.35;1.30;;;;;;;19.21;50.86;101233.06;4999178;28;20548;-73
2023/10/23 07:07:31;;;;;;;6.25;1.52;;;;;;;19.20;50.86;101239.31;4999203;28;20034;-73
2023/10/23 07:09:59;;;;;;;4.97;1.40;;;;;;;19.19;51.15;101237.63;4999105;28;20061;-72
2023/10/23 07:12:25;;;;;;;3.65;1.50;;;;;;;19.18;50.96;101246.50;4999411;28;20026;-72
2023/10/23 07:14:51;;;;;;;4.25;1.60;;;;;;;19.16;51.33;101244.00;4999144;28;20124;-75
2023/10/23 07:17:17;;;;;;;3.70;1.27;;;;;;;19.15;51.06;101237.06;4998957;28;20041;-71
2023/10/23 07:19:42;;;;;;;4.18;1.80;;;;;;;19.19;51.03;101235.00;4998838;28;20038;-70
2023/10/23 07:22:08;;;;;;;3.70;1.40;;;;;;;19.19;50.97;101230.53;4999298;28;20084;-70
2023/10/23 07:24:33;;;;;;;4.07;1.63;;;;;;;19.23;50.98;101236.41;4999234;28;20038;-69
2023/10/23 07:26:58;;;;;;;4.35;1.70;;;;;;;19.26;50.98;101241.47;4999682;28;20423;-70
2023/10/23 07:29:23;;;;;;;3.80;1.40;;;;;;;19.25;50.55;101238.94;5001869;28;20040;-70
2023/10/23 07:31:49;;;;;;;3.03;1.43;;;;;;;19.35;50.79;101243.38;5002704;28;20302;-69
2023/10/23 07:34:14;;;;;;;8.40;1.60;;;;;;;19.46;50.80;101246.97;5003651;28;20267;-72
2023/10/23 07:36:40;;;;;;;3.97;1.23;;;;;;;19.50;50.91;101245.75;5005226;28;20117;-72
2023/10/23 07:39:05;;;;;;;3.38;1.20;;;;;;;19.50;51.26;101248.38;5004109;28;20078;-69
2023/10/23 07:41:30;;;;;;;6.35;1.35;;;;;;;19.49;51.16;101252.00;5005430;28;20441;-70
2023/10/23 07:43:56;;;;;;;4.28;1.10;;;;;;;19.52;51.04;101251.75;5001962;28;20441;-74
2023/10/23 07:46:21;;;;;;;2.58;0.98;;;;;;;19.54;51.23;101257.75;5003290;28;20065;-73
2023/10/23 07:48:46;;;;;;;5.47;1.75;;;;;;;19.57;50.99;101255.69;5007419;28;20113;-69
2023/10/23 07:51:12;;;;;;;5.10;1.30;;;;;;;19.65;50.49;101252.44;5003752;28;20065;-72
2023/10/23 07:53:37;;;;;;;4.20;1.92;;;;;;;19.65;50.32;101257.72;5004020;28;20029;-72
2023/10/23 07:56:05;;;;;;;4.27;1.30;;;;;;;19.65;50.16;101255.09;5003681;28;20239;-75
2023/10/23 07:58:31;;;;;;;8.32;1.80;;;;;;;19.64;49.92;101255.22;5004664;28;20259;-72
2023/10/23 08:01:06;;;;;;;4.78;1.33;;;;;;;19.63;50.20;101249.09;5000833;28;20456;-70
2023/10/23 08:03:33;;;;;;;5.28;1.30;;;;;;;19.65;50.39;101252.44;5007626;28;20056;-69
2023/10/23 08:06:00;;;;;;;9.88;1.58;;;;;;;19.63;50.46;101237.66;5003554;28;20069;-70
2023/10/23 08:08:26;;;;;;;5.57;1.60;;;;;;;19.58;50.63;101238.03;4997611;28;20060;-70
2023/10/23 08:10:51;;;;;;;4.03;1.40;;;;;;;19.59;50.74;101239.72;5003305;28;20037;-71
2023/10/23 08:13:16;;;;;;;4.33;1.43;;;;;;;19.59;50.54;101234.44;5003118;28;20042;-70
2023/10/23 08:15:43;;;;;;;9.02;1.40;;;;;;;19.60;50.41;101236.13;5001568;28;20351;-70
2023/10/23 08:18:08;;;;;;;4.20;1.45;;;;;;;19.60;50.40;101237.91;5003363;28;20041;-70
2023/10/23 08:20:36;;;;;;;7.63;1.50;;;;;;;19.58;50.61;101233.59;5003156;28;20029;-70
2023/10/23 08:23:01;;;;;;;6.10;1.73;;;;;;;19.58;50.53;101230.09;5001915;28;20584;-70
2023/10/23 08:25:27;;;;;;;5.35;1.60;;;;;;;19.57;50.28;101231.06;5002265;28;20065;-70
2023/10/23 08:27:52;;;;;;;3.47;1.40;;;;;;;19.56;50.51;101235.50;5001677;28;20049;-70
2023/10/23 08:30:17;;;;;;;3.83;1.40;;;;;;;19.56;50.46;101238.16;5002199;28;20049;-71
2023/10/23 08:32:43;;;;;;;5.97;1.83;;;;;;;19.54;50.58;101240.09;5002374;28;20274;-70
2023/10/23 08:35:08;;;;;;;4.38;1.40;;;;;;;19.54;50.78;101241.91;5001803;28;20529;-71
2023/10/23 08:37:33;;;;;;;3.70;1.25;;;;;;;19.53;50.54;101240.22;5002560;28;20390;-71
2023/10/23 08:39:59;;;;;;;3.75;1.50;;;;;;;19.54;50.76;101250.66;5000660;28;20312;-70
2023/10/23 08:42:27;;;;;;;6.68;1.70;;;;;;;19.52;50.61;101244.66;5001162;28;20025;-70
2023/10/23 08:44:54;;;;;;;4.20;1.50;;;;;;;19.53;50.61;101248.97;5001695;28;20029;-71
2023/10/23 08:47:19;;;;;;;3.58;1.50;;;;;;;19.53;50.88;101240.22;5002276;28;20029;-71
2023/10/23 08:49:45;;;;;;;6.88;1.67;;;;;;;19.53;50.67;101246.31;5002293;28;20485;-71
2023/10/23 08:52:11;;;;;;;5.95;1.40;;;;;;;19.53;50.61;101238.41;5002342;28;20221;-71
2023/10/23 08:54:37;;;;;;;4.03;1.45;;;;;;;19.52;50.48;101238.53;5001954;28;20087;-70
2023/10/23 08:57:03;;;;;;;3.08;1.30;;;;;;;19.52;50.99;101239.38;5001437;28;20030;-71
2023/10/23 08:59:28;;;;;;;3.83;1.45;;;;;;;19.52;50.77;101239.38;5003418;28;20594;-70
2023/10/23 09:01:55;;;;;;;4.22;1.50;;;;;;;19.51;50.92;101235.03;5001634;28;20037;-70
2023/10/23 09:04:20;;;;;;;5.20;1.48;;;;;;;19.51;50.80;101235.03;5001630;28;20190;-70
2023/10/23 09:06:47;;;;;;;3.65;1.40;;;;;;;19.50;50.77;101230.75;5001566;28;20036;-71
2023/10/23 09:09:13;;;;;;;5.88;1.55;;;;;;;19.52;50.60;101231.44;5002197;28;20478;-71
2023/10/23 09:11:48;;;;;;;3.90;1.40;;;;;;;19.52;50.92;101230.63;5000968;28;20034;-71
2023/10/23 09:14:24;;;;;;;4.78;1.38;;;;;;;19.50;51.03;101228.09;5001289;28;20108;-68
2023/10/23 09:16:50;;;;;;;4.47;1.40;;;;;;;19.53;50.79;101227.81;5000508;28;20037;-71
2023/10/23 09:19:36;;;;;;;5.25;1.50;;;;;;;19.51;50.84;101224.47;5001681;28;20391;-71
2023/10/23 09:22:10;;;;;;;4.20;1.25;;;;;;;19.52;50.70;101218.22;4999648;28;20552;-71
2023/10/23 09:24:35;;;;;;;;;;;;;;;19.55;50.87;101209.19;5002532;28;20461;-73
2023/10/23 09:27:01;;;;;;;9.98;2.40;;;;;;;19.54;51.35;101210.19;5000721;28;20013;-70
2023/10/23 09:29:27;;;;;;;3.67;1.40;;;;;;;19.53;51.13;101200.56;5001838;28;20036;-70
2023/10/23 09:31:54;;;;;;;4.10;1.45;;;;;;;19.48;51.37;101210.66;4994232;28;20096;-69
2023/10/23 09:34:23;;;;;;;6.90;1.83;;;;;;;19.37;51.75;101204.44;5000886;28;20137;-75
2023/10/23 09:36:50;;;;;;;5.03;1.42;;;;;;;19.30;51.86;101192.69;5000948;28;20056;-70
2023/10/23 09:39:16;;;;;;;6.20;1.52;;;;;;;19.27;52.35;101189.47;5000735;28;20061;-69
2023/10/23 09:41:42;;;;;;;6.20;1.60;;;;;;;19.23;52.34;101194.13;5000758;28;20038;-68
2023/10/23 09:44:08;;;;;;;3.38;1.40;;;;;;;19.22;52.46;101197.75;5001249;28;20644;-73
2023/10/23 09:46:33;;;;;;;9.70;2.72;;;;;;;19.19;50.63;101192.72;5000125;28;20065;-70
2023/10/23 09:48:59;;;;;;;7.93;2.40;;;;;;;19.19;51.07;101195.38;5008165;28;20061;-69
2023/10/23 09:51:29;;;;;;;6.88;2.55;;;;;;;19.18;50.88;101197.19;5000644;28;20084;-69
2023/10/23 09:53:59;;;;;;;6.90;2.03;;;;;;;19.20;51.11;101203.16;4998047;28;20045;-69
2023/10/23 09:56:30;;;;;;;4.75;1.60;;;;;;;19.20;52.26;101197.88;5000474;28;20062;-71
2023/10/23 09:59:07;;;;;;;7.20;2.03;;;;;;;19.19;52.41;101200.66;5000289;28;20036;-71
2023/10/23 10:01:40;;;;;;;6.55;1.98;;;;;;;19.16;52.41;101198.25;5001137;28;20140;-68
2023/10/23 10:04:29;;;;;;;5.90;1.58;;;;;;;19.12;52.94;101197.66;4998993;28;20034;-70
2023/10/23 10:07:04;;;;;;;4.97;1.60;;;;;;;19.13;52.79;101191.41;4998086;28;20414;-68
2023/10/23 10:09:30;;;;;;;5.53;1.52;;;;;;;19.13;52.89;101194.03;5000742;28;20422;-69
2023/10/23 10:11:59;;;;;;;8.48;1.40;;;;;;;19.14;53.01;101193.09;4999913;28;20746;-72
2023/10/23 10:14:27;;;;;;;4.65;1.42;;;;;;;19.15;52.80;101184.22;4998778;28;20095;-75
2023/10/23 10:16:55;;;;;;;5.80;1.33;;;;;;;19.17;52.82;101184.09;4999915;28;20026;-69
2023/10/23 10:19:21;;;;;;;5.47;1.55;;;;;;;19.17;52.65;101181.44;5001014;28;20069;-71
2023/10/23 10:22:25;;;;;;;4.82;1.48;;;;;;;19.18;52.99;101185.75;4999803;28;20580;-72
2023/10/23 10:24:52;;;;;;;6.13;1.70;;;;;;;19.22;52.81;101189.84;5001300;28;20691;-73
2023/10/23 10:27:18;;;;;;;8.25;1.80;;;;;;;19.21;52.71;101178.41;4999953;28;20060;-70
2023/10/23 10:29:43;;;;;;;5.50;1.60;;;;;;;19.23;52.61;101178.28;4998177;28;20026;-70
2023/10/23 10:32:10;;;;;;;6.65;1.52;;;;;;;19.23;52.99;101166.88;5008786;28;20125;-73
2023/10/23 10:34:37;;;;;;;5.03;1.63;;;;;;;19.25;52.80;101170.25;4999452;28;20149;-70
2023/10/23 10:37:05;;;;;;;6.57;1.67;;;;;;;19.24;52.70;101168.56;4998303;28;20030;-71
2023/10/23 10:39:46;;;;;;;4.65;1.40;;;;;;;19.23;52.93;101162.44;5000187;28;21041;-72
2023/10/23 10:42:16;;;;;;;4.97;1.60;;;;;;;19.26;52.78;101164.00;5016019;28;20129;-71
2023/10/23 10:45:15;;;;;;;6.00;1.48;;;;;;;19.25;52.71;101160.53;5013043;28;20038;-73
2023/10/23 10:47:45;;;;;;;4.35;1.30;;;;;;;19.27;52.60;101157.75;4987822;28;20490;-73
2023/10/23 10:50:12;;;;;;;5.47;1.55;;;;;;;19.26;52.76;101150.78;5000111;28;20407;-73
2023/10/23 10:52:39;;;;;;;8.40;1.48;;;;;;;19.26;52.36;101145.50;4999020;28;20087;-72
2023/10/23 10:55:05;;;;;;;6.13;1.52;;;;;;;19.31;52.39;101138.88;4997287;28;20033;-72
2023/10/23 10:57:30;;;;;;;4.20;1.33;;;;;;;19.45;52.29;101134.28;4998930;28;20040;-73
2023/10/23 10:59:58;;;;;;;7.10;1.30;;;;;;;19.53;51.88;101129.19;4999005;28;20041;-72
2023/10/23 11:02:23;;;;;;;4.78;2.05;;;;;;;19.57;51.89;101120.03;4999890;28;20050;-73
2023/10/23 11:04:49;;;;;;;4.75;1.25;;;;;;;19.62;51.75;101114.38;4999188;28;20034;-73
2023/10/23 11:07:19;;;;;;;4.60;1.42;;;;;;;19.65;51.66;101104.38;4998889;28;20478;-68
2023/10/23 11:09:44;;;;;;;7.30;1.40;;;;;;;19.67;51.47;101097.13;4998524;28;20053;-70
2023/10/23 11:12:09;;;;;;;4.90;1.30;;;;;;;19.69;51.58;101097.00;4999401;28;20041;-68
2023/10/23 11:14:38;;;;;;;10.60;1.77;;;;;;;19.70;51.46;101101.34;4999761;28;20044;-71
2023/10/23 11:17:03;;;;;;;5.72;1.35;;;;;;;19.72;51.63;101102.03;4997842;28;20710;-68
2023/10/23 11:19:28;;;;;;;4.43;1.40;;;;;;;19.72;51.55;101091.47;4999867;28;20037;-72
2023/10/23 11:22:10;;;;;;;6.10;1.70;;;;;;;19.69;51.73;101091.72;4999582;28;20088;-74